createdAt,value
2023-04-07T00:01:29.293Z,11.06
2023-04-07T00:03:58.993Z,11.17
2023-04-07T00:06:27.506Z,11.23
2023-04-07T00:08:55.462Z,11.24
2023-04-07T00:11:23.360Z,11.20
2023-04-07T00:13:53.020Z,11.21
2023-04-07T00:16:21.115Z,11.26
2023-04-07T00:18:48.967Z,11.22
2023-04-07T00:21:17.414Z,11.20
2023-04-07T00:23:45.554Z,11.13
2023-04-07T00:26:13.560Z,11.13
2023-04-07T00:28:44.260Z,11.20
2023-04-07T00:31:13.617Z,11.12
2023-04-07T00:33:41.408Z,11.14
2023-04-07T00:36:09.802Z,11.20
2023-04-07T00:38:37.647Z,11.20
2023-04-07T00:41:05.731Z,11.23
2023-04-07T00:43:33.746Z,11.22
2023-04-07T00:46:01.858Z,11.20
2023-04-07T00:48:31.702Z,11.18
2023-04-07T00:50:59.700Z,11.27
2023-04-07T00:53:27.685Z,11.29
2023-04-07T00:55:55.638Z,11.25
2023-04-07T00:58:23.662Z,11.29
2023-04-07T01:00:59.926Z,11.32
2023-04-07T01:03:36.589Z,11.42
2023-04-07T01:06:09.351Z,11.42
2023-04-07T01:08:44.628Z,11.30
2023-04-07T01:11:20.709Z,11.23
2023-04-07T01:13:51.960Z,11.22
2023-04-07T01:16:48.132Z,11.26
2023-04-07T01:19:35.592Z,11.39
2023-04-07T01:22:08.144Z,11.27
2023-04-07T01:24:47.058Z,11.18
2023-04-07T01:27:23.743Z,11.16
2023-04-07T01:29:54.340Z,11.20
2023-04-07T01:32:25.148Z,11.23
2023-04-07T01:34:54.596Z,11.30
2023-04-07T01:37:23.844Z,11.30
2023-04-07T01:39:52.141Z,11.32
2023-04-07T01:42:21.161Z,11.34
2023-04-07T01:44:49.983Z,11.38
2023-04-07T01:47:20.351Z,11.35
2023-04-07T01:49:49.238Z,11.44
2023-04-07T01:52:18.241Z,11.41
2023-04-07T01:54:46.843Z,11.44
2023-04-07T01:57:14.637Z,11.39
2023-04-07T01:59:43.299Z,11.31
2023-04-07T02:02:12.045Z,11.26
2023-04-07T02:04:50.467Z,11.25
2023-04-07T02:07:22.243Z,11.30
2023-04-07T02:09:56.643Z,11.21
2023-04-07T02:12:27.491Z,11.16
2023-04-07T02:15:04.960Z,11.19
2023-04-07T02:17:36.016Z,11.26
2023-04-07T02:20:08.120Z,11.21
2023-04-07T02:22:39.336Z,11.21
2023-04-07T02:25:25.528Z,11.31
2023-04-07T02:27:56.565Z,11.24
2023-04-07T02:30:25.002Z,11.25
2023-04-07T02:32:53.123Z,11.26
2023-04-07T02:35:23.580Z,11.25
2023-04-07T02:37:51.619Z,11.18
2023-04-07T02:40:19.603Z,11.14
2023-04-07T02:42:48.143Z,11.17
2023-04-07T02:45:16.233Z,11.16
2023-04-07T02:47:44.150Z,11.17
2023-04-07T02:50:12.569Z,11.18
2023-04-07T02:52:41.778Z,11.18
2023-04-07T02:55:13.207Z,11.24
2023-04-07T02:57:41.500Z,11.21
2023-04-07T03:00:29.576Z,11.18
2023-04-07T03:03:03.193Z,11.23
2023-04-07T03:05:34.997Z,11.29
2023-04-07T03:08:05.747Z,11.32
2023-04-07T03:10:33.846Z,11.26
2023-04-07T03:13:01.602Z,11.25
2023-04-07T03:15:30.669Z,11.28
2023-04-07T03:17:58.639Z,11.20
2023-04-07T03:20:27.179Z,11.26
2023-04-07T03:22:56.738Z,11.31
2023-04-07T03:25:29.773Z,11.50
2023-04-07T03:27:58.121Z,11.27
2023-04-07T03:30:29.260Z,11.29
2023-04-07T03:32:57.560Z,11.31
2023-04-07T03:35:25.958Z,11.34
2023-04-07T03:37:53.723Z,11.33
2023-04-07T03:40:22.040Z,11.33
2023-04-07T03:42:51.453Z,11.36
2023-04-07T03:45:19.548Z,11.36
2023-04-07T03:47:54.263Z,11.41
2023-04-07T03:50:23.322Z,11.40
2023-04-07T03:53:15.527Z,11.44
2023-04-07T03:55:44.475Z,11.43
2023-04-07T03:58:22.451Z,11.46
2023-04-07T04:00:50.773Z,11.44
2023-04-07T04:03:18.835Z,11.39
2023-04-07T04:05:58.173Z,11.38
2023-04-07T04:08:30.222Z,11.44
2023-04-07T04:10:58.373Z,11.37
2023-04-07T04:13:32.891Z,11.36
2023-04-07T04:16:04.890Z,11.39
2023-04-07T04:18:32.942Z,11.33
2023-04-07T04:21:01.501Z,11.31
2023-04-07T04:23:29.540Z,11.32
2023-04-07T04:26:00.235Z,11.35
2023-04-07T04:28:28.987Z,11.37
2023-04-07T04:30:58.436Z,11.30
2023-04-07T04:33:26.514Z,11.32
2023-04-07T04:35:59.446Z,11.36
2023-04-07T04:38:28.332Z,11.32
2023-04-07T04:41:05.064Z,11.22
2023-04-07T04:43:33.420Z,11.21
2023-04-07T04:46:04.057Z,11.20
2023-04-07T04:48:36.626Z,11.19
2023-04-07T04:51:07.152Z,11.16
2023-04-07T04:53:35.377Z,11.23
2023-04-07T04:56:04.143Z,11.17
2023-04-07T04:58:46.019Z,11.16
2023-04-07T05:01:20.791Z,11.06
2023-04-07T05:03:58.260Z,11.09
2023-04-07T05:06:29.802Z,11.10
2023-04-07T05:09:02.527Z,11.10
2023-04-07T05:11:38.347Z,11.18
2023-04-07T05:14:06.319Z,11.11
2023-04-07T05:16:36.102Z,11.10
2023-04-07T05:19:05.941Z,11.12
2023-04-07T05:21:33.868Z,11.13
2023-04-07T05:24:05.026Z,11.14
2023-04-07T05:26:35.030Z,11.14
2023-04-07T05:29:05.594Z,11.21
2023-04-07T05:31:37.512Z,11.13
2023-04-07T05:34:10.369Z,11.21
2023-04-07T05:36:45.385Z,11.23
2023-04-07T05:39:13.198Z,11.26
2023-04-07T05:41:41.446Z,11.32
2023-04-07T05:44:10.341Z,11.33
2023-04-07T05:46:42.757Z,11.32
2023-04-07T05:49:19.602Z,11.37
2023-04-07T05:51:51.291Z,11.35
2023-04-07T05:54:19.191Z,11.36
2023-04-07T05:56:47.087Z,11.36
2023-04-07T05:59:15.534Z,11.27
2023-04-07T06:01:45.092Z,11.21
2023-04-07T06:04:13.163Z,11.22
2023-04-07T06:06:41.358Z,11.18
2023-04-07T06:09:09.849Z,11.20
2023-04-07T06:11:37.919Z,11.18
2023-04-07T06:14:05.885Z,11.14
2023-04-07T06:16:33.917Z,11.17
2023-04-07T06:19:03.731Z,11.22
2023-04-07T06:21:31.765Z,11.26
2023-04-07T06:23:59.691Z,11.30
2023-04-07T06:26:28.914Z,11.32
2023-04-07T06:28:58.083Z,11.33
2023-04-07T06:31:26.273Z,11.34
2023-04-07T06:33:54.265Z,11.32
2023-04-07T06:36:24.703Z,11.33
2023-04-07T06:38:54.528Z,11.38
2023-04-07T06:41:22.472Z,11.47
2023-04-07T06:43:52.455Z,11.58
2023-04-07T06:46:20.956Z,11.59
2023-04-07T06:48:48.855Z,11.60
2023-04-07T06:51:17.158Z,11.67
2023-04-07T06:53:48.716Z,11.69
2023-04-07T06:56:16.825Z,11.62
2023-04-07T06:58:44.544Z,11.69
2023-04-07T07:01:12.417Z,11.72
2023-04-07T07:03:40.354Z,11.74
2023-04-07T07:06:08.535Z,11.80
2023-04-07T07:08:36.272Z,11.79
2023-04-07T07:11:05.833Z,11.80
2023-04-07T07:13:33.594Z,11.76
2023-04-07T07:16:01.554Z,11.71
2023-04-07T07:18:31.576Z,11.67
2023-04-07T07:20:59.886Z,11.69
2023-04-07T07:23:28.264Z,11.66
2023-04-07T07:25:57.384Z,11.61
2023-04-07T07:28:27.158Z,11.57
2023-04-07T07:30:56.711Z,11.63
2023-04-07T07:33:24.961Z,11.74
2023-04-07T07:35:53.196Z,11.80
2023-04-07T07:38:21.391Z,11.84
2023-04-07T07:40:49.253Z,11.85
2023-04-07T07:43:18.050Z,11.86
2023-04-07T07:45:47.324Z,11.89
2023-04-07T07:48:18.208Z,11.95
2023-04-07T07:50:47.110Z,11.94
2023-04-07T07:53:15.077Z,11.95
2023-04-07T07:55:43.035Z,11.93
2023-04-07T07:58:11.036Z,11.96
2023-04-07T08:00:40.363Z,11.96
2023-04-07T08:03:09.879Z,11.98
2023-04-07T08:05:37.713Z,11.91
2023-04-07T08:08:05.483Z,11.89
2023-04-07T08:10:33.270Z,11.90
2023-04-07T08:13:01.134Z,11.95
2023-04-07T08:15:28.941Z,11.94
2023-04-07T08:17:57.031Z,11.84
2023-04-07T08:20:26.647Z,11.73
2023-04-07T08:22:54.643Z,11.70
2023-04-07T08:25:22.590Z,11.71
2023-04-07T08:27:50.426Z,11.74
2023-04-07T08:30:18.390Z,11.80
2023-04-07T08:32:46.380Z,11.81
2023-04-07T08:35:14.442Z,11.91
2023-04-07T08:37:44.453Z,12.00
2023-04-07T08:40:13.286Z,12.03
2023-04-07T08:42:43.853Z,12.05
2023-04-07T08:45:11.858Z,12.11
2023-04-07T08:47:42.669Z,12.15
2023-04-07T08:50:12.760Z,12.17
2023-04-07T08:52:47.214Z,12.19
2023-04-07T08:55:15.754Z,12.13
2023-04-07T08:57:44.595Z,12.17
2023-04-07T09:00:13.901Z,12.18
2023-04-07T09:02:45.310Z,12.26
2023-04-07T09:05:14.504Z,12.30
2023-04-07T09:07:43.545Z,12.29
2023-04-07T09:10:12.889Z,12.42
2023-04-07T09:12:41.173Z,12.53
2023-04-07T09:15:09.667Z,12.47
2023-04-07T09:17:37.573Z,12.56
2023-04-07T09:20:05.981Z,12.54
2023-04-07T09:22:38.734Z,12.55
2023-04-07T09:25:22.788Z,12.61
2023-04-07T09:27:58.616Z,12.50
2023-04-07T09:30:28.039Z,12.57
2023-04-07T09:32:56.733Z,12.56
2023-04-07T09:35:25.700Z,12.51
2023-04-07T09:38:04.818Z,12.60
2023-04-07T09:40:34.861Z,12.59
2023-04-07T09:43:04.253Z,12.63
2023-04-07T09:45:36.226Z,12.71
2023-04-07T09:48:09.059Z,12.74
2023-04-07T09:50:40.979Z,12.71
2023-04-07T09:53:08.815Z,12.69
2023-04-07T09:55:38.621Z,12.68
2023-04-07T09:58:07.516Z,12.67
2023-04-07T10:00:37.112Z,12.73
2023-04-07T10:03:05.727Z,12.62
2023-04-07T10:05:35.121Z,12.65
2023-04-07T10:08:03.585Z,12.66
2023-04-07T10:10:32.393Z,12.65
2023-04-07T10:13:02.672Z,12.69
2023-04-07T10:15:31.790Z,12.71
2023-04-07T10:18:00.871Z,12.68
2023-04-07T10:20:30.721Z,12.63
2023-04-07T10:23:05.938Z,12.65
2023-04-07T10:25:36.421Z,12.72
2023-04-07T10:28:09.194Z,12.93
2023-04-07T10:30:38.648Z,12.83
2023-04-07T10:33:06.691Z,13.02
2023-04-07T10:36:05.645Z,13.10
2023-04-07T10:38:33.688Z,13.08
2023-04-07T10:41:01.747Z,13.13
2023-04-07T10:43:48.944Z,13.29
2023-04-07T10:46:17.258Z,13.24
2023-04-07T10:49:11.923Z,13.39
2023-04-07T10:51:39.812Z,13.38
2023-04-07T10:54:17.748Z,13.36
2023-04-07T10:57:10.239Z,13.41
2023-04-07T10:59:41.142Z,13.39
2023-04-07T11:02:34.951Z,13.49
2023-04-07T11:05:04.280Z,13.68
2023-04-07T11:07:57.740Z,13.61
2023-04-07T11:10:25.686Z,13.61
2023-04-07T11:13:05.528Z,13.63
2023-04-07T11:15:37.133Z,13.61
2023-04-07T11:18:15.092Z,13.65
2023-04-07T11:20:47.844Z,13.69
2023-04-07T11:23:17.138Z,13.79
2023-04-07T11:25:47.035Z,13.74
2023-04-07T11:28:15.702Z,13.83
2023-04-07T11:30:50.108Z,13.92
2023-04-07T11:33:19.279Z,13.93
2023-04-07T11:35:52.268Z,13.92
2023-04-07T11:38:21.201Z,13.94
2023-04-07T11:40:49.275Z,13.95
2023-04-07T11:43:18.958Z,13.87
2023-04-07T11:46:04.196Z,13.82
2023-04-07T11:48:33.451Z,13.68
2023-04-07T11:51:01.755Z,13.74
2023-04-07T11:53:30.828Z,13.85
2023-04-07T11:56:03.586Z,13.91
2023-04-07T11:58:31.764Z,13.91
2023-04-07T12:01:06.669Z,13.88
2023-04-07T12:03:36.701Z,14.06
2023-04-07T12:06:06.444Z,14.15
2023-04-07T12:08:45.491Z,14.36
2023-04-07T12:11:13.342Z,14.49
2023-04-07T12:13:41.431Z,14.50
2023-04-07T12:16:10.853Z,14.51
2023-04-07T12:18:38.980Z,14.55
2023-04-07T12:21:07.084Z,14.62
2023-04-07T12:23:35.036Z,14.48
2023-04-07T12:26:03.552Z,14.63
2023-04-07T12:28:31.853Z,14.46
2023-04-07T12:30:59.768Z,14.46
2023-04-07T12:33:28.972Z,14.48
2023-04-07T12:35:58.718Z,14.56
2023-04-07T12:38:27.079Z,14.43
2023-04-07T12:40:54.928Z,14.38
2023-04-07T12:43:22.851Z,14.46
2023-04-07T12:45:50.866Z,14.48
2023-04-07T12:48:18.812Z,14.42
2023-04-07T12:50:48.238Z,14.48
2023-04-07T12:53:16.532Z,14.51
2023-04-07T12:55:44.333Z,14.54
2023-04-07T12:58:12.079Z,14.59
2023-04-07T13:00:41.810Z,14.63
2023-04-07T13:03:10.087Z,14.73
2023-04-07T13:05:38.194Z,14.98
2023-04-07T13:08:08.064Z,15.20
2023-04-07T13:10:35.902Z,15.33
2023-04-07T13:13:04.232Z,15.38
2023-04-07T13:15:32.016Z,15.37
2023-04-07T13:18:00.198Z,15.30
2023-04-07T13:20:30.304Z,15.33
2023-04-07T13:23:07.613Z,15.38
2023-04-07T13:25:38.836Z,15.44
2023-04-07T13:28:07.025Z,15.45
2023-04-07T13:30:35.042Z,15.44
2023-04-07T13:33:03.059Z,15.39
2023-04-07T13:35:35.602Z,15.34
2023-04-07T13:38:04.355Z,15.43
2023-04-07T13:40:32.607Z,15.39
2023-04-07T13:43:01.757Z,15.21
2023-04-07T13:45:29.598Z,15.17
2023-04-07T13:47:57.811Z,15.20
2023-04-07T13:50:25.948Z,15.25
2023-04-07T13:52:53.700Z,15.25
2023-04-07T13:55:21.559Z,15.17
2023-04-07T13:57:49.309Z,15.09
2023-04-07T14:00:19.785Z,15.14
2023-04-07T14:02:48.559Z,15.16
2023-04-07T14:05:16.582Z,15.20
2023-04-07T14:07:44.481Z,15.20
2023-04-07T14:10:12.438Z,15.21
2023-04-07T14:12:40.264Z,15.22
2023-04-07T14:15:09.644Z,15.15
2023-04-07T14:17:38.816Z,15.17
2023-04-07T14:20:07.965Z,15.12
2023-04-07T14:22:35.727Z,15.21
2023-04-07T14:25:04.237Z,15.36
2023-04-07T14:27:32.234Z,15.68
2023-04-07T14:30:00.350Z,16.00
2023-04-07T14:32:29.585Z,16.11
2023-04-07T14:35:00.197Z,16.34
2023-04-07T14:37:29.246Z,16.53
2023-04-07T14:42:29.646Z,16.89
2023-04-07T14:44:58.124Z,17.02
2023-04-07T14:47:26.498Z,17.22
2023-04-07T14:49:54.586Z,17.21
2023-04-07T14:52:23.775Z,17.31
2023-04-07T14:54:51.658Z,17.44
2023-04-07T14:57:19.660Z,17.27
2023-04-07T14:59:48.394Z,17.13
2023-04-07T15:02:17.004Z,17.14
2023-04-07T15:04:45.074Z,17.16
2023-04-07T15:07:13.446Z,17.17
2023-04-07T15:09:42.710Z,17.42
2023-04-07T15:12:10.481Z,17.64
2023-04-07T15:14:38.247Z,17.81
2023-04-07T15:17:06.275Z,17.91
2023-04-07T15:19:34.083Z,17.94
2023-04-07T15:22:01.898Z,18.04
2023-04-07T15:24:29.975Z,18.03
2023-04-07T15:27:00.638Z,18.00
2023-04-07T15:29:28.532Z,17.92
2023-04-07T15:31:56.616Z,17.87
2023-04-07T15:34:24.405Z,17.96
2023-04-07T15:36:54.047Z,18.05
2023-04-07T15:39:22.244Z,18.17
2023-04-07T15:41:50.474Z,18.28
2023-04-07T15:44:20.102Z,18.23
2023-04-07T15:46:48.060Z,18.39
2023-04-07T15:49:24.317Z,18.48
2023-04-07T15:51:54.199Z,18.50
2023-04-07T15:54:22.160Z,18.40
2023-04-07T15:56:50.350Z,18.28
2023-04-07T15:59:19.558Z,18.39
2023-04-07T16:01:47.793Z,18.34
2023-04-07T16:04:15.768Z,18.15
2023-04-07T16:06:43.808Z,18.19
2023-04-07T16:09:11.633Z,18.16
2023-04-07T16:11:39.607Z,18.16
2023-04-07T16:14:09.240Z,18.20
2023-04-07T16:16:40.863Z,18.28
2023-04-07T16:19:09.482Z,18.25
2023-04-07T16:21:39.986Z,18.10
2023-04-07T16:24:08.575Z,18.01
2023-04-07T16:26:36.408Z,17.99
2023-04-07T16:29:04.660Z,17.93
2023-04-07T16:31:32.620Z,17.92
2023-04-07T16:34:02.100Z,17.97
2023-04-07T16:36:30.022Z,17.94
2023-04-07T16:38:58.221Z,17.97
2023-04-07T16:41:26.356Z,17.98
2023-04-07T16:43:54.312Z,18.00
2023-04-07T16:46:25.873Z,17.92
2023-04-07T16:48:53.860Z,17.92
2023-04-07T16:51:24.183Z,17.90
2023-04-07T16:53:52.275Z,17.86
2023-04-07T16:56:21.355Z,17.66
2023-04-07T16:58:49.683Z,17.68
2023-04-07T17:01:18.461Z,17.62
2023-04-07T17:03:48.920Z,17.59
2023-04-07T17:06:17.367Z,17.61
2023-04-07T17:08:48.716Z,17.57
2023-04-07T17:11:16.675Z,17.54
2023-04-07T17:13:44.724Z,17.55
2023-04-07T17:16:14.224Z,17.48
2023-04-07T17:18:42.229Z,17.38
2023-04-07T17:21:10.563Z,17.29
2023-04-07T17:23:38.422Z,17.25
2023-04-07T17:26:07.847Z,17.11
2023-04-07T17:28:35.860Z,17.06
2023-04-07T17:31:03.858Z,16.99
2023-04-07T17:33:31.823Z,16.86
2023-04-07T17:36:02.099Z,16.78
2023-04-07T17:38:30.129Z,16.67
2023-04-07T17:40:59.465Z,16.52
2023-04-07T17:43:29.497Z,16.49
2023-04-07T17:45:57.918Z,16.49
2023-04-07T17:48:26.600Z,16.45
2023-04-07T17:50:54.500Z,16.24
2023-04-07T17:53:22.436Z,16.24
2023-04-07T17:55:50.671Z,16.25
2023-04-07T17:58:20.124Z,16.20
2023-04-07T18:00:50.644Z,16.16
2023-04-07T18:03:19.500Z,16.06
2023-04-07T18:05:49.068Z,15.91
2023-04-07T18:08:16.838Z,15.96
2023-04-07T18:10:44.821Z,15.96
2023-04-07T18:13:12.772Z,15.88
2023-04-07T18:15:40.805Z,15.78
2023-04-07T18:18:10.052Z,15.76
2023-04-07T18:20:37.930Z,15.65
2023-04-07T18:23:06.787Z,15.57
2023-04-07T18:25:35.213Z,15.56
2023-04-07T18:28:04.499Z,15.47
2023-04-07T18:30:32.558Z,15.40
2023-04-07T18:33:00.513Z,15.37
2023-04-07T18:35:30.725Z,15.30
2023-04-07T18:37:59.191Z,15.29
2023-04-07T18:40:29.910Z,15.25
2023-04-07T18:42:58.199Z,15.24
2023-04-07T18:45:26.345Z,15.19
2023-04-07T18:47:54.339Z,15.13
2023-04-07T18:50:22.186Z,15.08
2023-04-07T18:52:51.648Z,15.02
2023-04-07T18:55:20.778Z,15.01
2023-04-07T18:57:48.809Z,15.00
2023-04-07T19:00:16.952Z,14.94
2023-04-07T19:02:45.310Z,14.96
2023-04-07T19:05:14.169Z,14.89
2023-04-07T19:07:42.184Z,14.87
2023-04-07T19:10:11.639Z,14.80
2023-04-07T19:12:40.120Z,14.86
2023-04-07T19:15:09.415Z,14.84
2023-04-07T19:17:37.836Z,14.83
2023-04-07T19:20:06.961Z,14.80
2023-04-07T19:22:34.872Z,14.80
2023-04-07T19:25:03.296Z,14.79
2023-04-07T19:27:32.707Z,14.79
2023-04-07T19:30:00.514Z,14.76
2023-04-07T19:32:28.487Z,14.64
2023-04-07T19:34:56.541Z,14.59
2023-04-07T19:37:24.471Z,14.56
2023-04-07T19:40:02.304Z,14.59
2023-04-07T19:42:33.106Z,14.58
2023-04-07T19:45:02.624Z,14.56
2023-04-07T19:47:30.687Z,14.59
2023-04-07T19:49:58.695Z,14.64
2023-04-07T19:52:26.625Z,14.71
2023-04-07T19:54:54.415Z,14.73
2023-04-07T19:57:22.653Z,14.65
2023-04-07T19:59:51.990Z,14.50
2023-04-07T20:02:20.021Z,14.49
2023-04-07T20:04:48.033Z,14.42
2023-04-07T20:07:15.902Z,14.34
2023-04-07T20:09:43.743Z,14.33
2023-04-07T20:12:11.720Z,14.21
2023-04-07T20:14:39.692Z,14.14
2023-04-07T20:17:08.975Z,14.13
2023-04-07T20:19:37.265Z,14.09
2023-04-07T20:22:05.603Z,14.07
2023-04-07T20:24:36.055Z,13.97
2023-04-07T20:27:03.993Z,13.89
2023-04-07T20:29:31.911Z,13.92
2023-04-07T20:31:59.695Z,13.85
2023-04-07T20:34:29.078Z,13.91
2023-04-07T20:36:57.077Z,13.87
2023-04-07T20:39:25.173Z,13.89
2023-04-07T20:41:53.000Z,13.84
2023-04-07T20:44:21.317Z,13.63
2023-04-07T20:46:49.068Z,13.72
2023-04-07T20:49:16.799Z,13.69
2023-04-07T20:51:45.972Z,13.63
2023-04-07T20:54:13.779Z,13.64
2023-04-07T20:56:43.001Z,13.61
2023-04-07T20:59:10.819Z,13.61
2023-04-07T21:01:38.724Z,13.58
2023-04-07T21:04:06.699Z,13.58
2023-04-07T21:06:34.548Z,13.42
2023-04-07T21:09:05.600Z,13.50
2023-04-07T21:11:33.343Z,13.51
2023-04-07T21:14:01.531Z,13.40
2023-04-07T21:16:29.801Z,13.35
2023-04-07T21:18:58.180Z,13.38
2023-04-07T21:21:25.995Z,13.38
2023-04-07T21:23:53.799Z,13.19
2023-04-07T21:26:23.042Z,13.38
2023-04-07T21:28:52.263Z,13.23
2023-04-07T21:31:23.995Z,13.23
2023-04-07T21:33:52.862Z,13.28
2023-04-07T21:36:20.782Z,13.19
2023-04-07T21:38:48.858Z,13.22
2023-04-07T21:41:16.840Z,13.28
2023-04-07T21:43:46.169Z,13.19
2023-04-07T21:46:14.527Z,13.14
2023-04-07T21:48:42.325Z,13.10
2023-04-07T21:51:10.316Z,13.03
2023-04-07T21:53:39.293Z,13.06
2023-04-07T21:56:08.378Z,12.97
2023-04-07T21:58:36.496Z,13.06
2023-04-07T22:01:05.913Z,13.06
2023-04-07T22:03:34.124Z,13.00
2023-04-07T22:06:02.468Z,13.05
2023-04-07T22:08:30.323Z,12.94
2023-04-07T22:10:58.747Z,12.98
2023-04-07T22:13:26.617Z,12.94
2023-04-07T22:15:54.390Z,12.92
2023-04-07T22:18:23.556Z,12.89
2023-04-07T22:20:51.401Z,12.86
2023-04-07T22:23:19.427Z,12.72
2023-04-07T22:25:47.334Z,12.72
2023-04-07T22:28:15.355Z,12.68
2023-04-07T22:30:43.152Z,12.64
2023-04-07T22:33:11.315Z,12.63
2023-04-07T22:35:40.773Z,12.59
2023-04-07T22:38:08.642Z,12.61
2023-04-07T22:40:36.595Z,12.41
2023-04-07T22:43:04.851Z,12.48
2023-04-07T22:45:32.769Z,12.20
2023-04-07T22:48:00.691Z,12.34
2023-04-07T22:50:28.942Z,12.21
2023-04-07T22:53:02.698Z,12.17
2023-04-07T22:55:30.677Z,12.46
2023-04-07T22:57:58.553Z,12.18
2023-04-07T23:00:26.830Z,12.12
2023-04-07T23:02:55.150Z,12.20
2023-04-07T23:05:23.478Z,12.24
2023-04-07T23:07:53.348Z,12.24
2023-04-07T23:10:22.700Z,12.13
2023-04-07T23:12:55.890Z,12.16
2023-04-07T23:15:23.799Z,12.15
2023-04-07T23:17:51.844Z,12.08
2023-04-07T23:20:19.781Z,12.09
2023-04-07T23:22:47.661Z,12.03
2023-04-07T23:25:15.574Z,12.02
2023-04-07T23:27:44.669Z,11.91
2023-04-07T23:30:13.798Z,11.96
2023-04-07T23:32:41.715Z,11.97
2023-04-07T23:35:10.887Z,11.85
2023-04-07T23:37:39.060Z,11.73
2023-04-07T23:40:10.684Z,11.66
2023-04-07T23:42:39.386Z,11.66
2023-04-07T23:45:09.680Z,11.66
2023-04-07T23:47:37.881Z,11.60
2023-04-07T23:50:06.656Z,11.57
2023-04-07T23:52:34.421Z,11.59
2023-04-07T23:55:02.689Z,11.66
2023-04-07T23:57:30.721Z,11.70
2023-04-07T23:59:58.534Z,11.70
